createdAt,value
2023-03-03T00:02:51.646Z,55.20
2023-03-03T00:07:53.173Z,64.78
2023-03-03T00:12:54.684Z,68.90
2023-03-03T00:17:56.541Z,61.17
2023-03-03T00:23:23.200Z,82.05
2023-03-03T00:28:30.932Z,62.08
2023-03-03T00:33:35.280Z,74.85
2023-03-03T00:38:37.041Z,61.10
2023-03-03T00:43:38.485Z,38.05
2023-03-03T00:48:43.678Z,52.80
2023-03-03T00:53:45.455Z,46.13
2023-03-03T00:58:48.154Z,54.78
2023-03-03T01:03:52.220Z,62.83
2023-03-03T01:08:54.226Z,50.80
2023-03-03T01:13:56.570Z,55.40
2023-03-03T01:18:58.112Z,64.57
2023-03-03T01:23:59.587Z,53.33
2023-03-03T01:29:01.038Z,53.28
2023-03-03T01:34:02.539Z,63.55
2023-03-03T01:39:04.418Z,58.45
2023-03-03T01:44:05.964Z,46.03
2023-03-03T01:49:14.167Z,31.40
2023-03-03T01:54:26.435Z,43.72
2023-03-03T01:59:36.535Z,57.55
2023-03-03T02:04:37.995Z,52.22
2023-03-03T02:10:02.417Z,48.63
2023-03-03T02:20:51.809Z,61.45
2023-03-03T02:25:58.636Z,53.53
2023-03-03T02:31:01.588Z,46.17
2023-03-03T02:36:03.840Z,45.83
2023-03-03T02:41:39.653Z,62.50
2023-03-03T02:46:47.560Z,46.13
2023-03-03T02:51:49.606Z,31.48
2023-03-03T02:56:51.132Z,53.17
2023-03-03T03:01:52.906Z,54.10
2023-03-03T03:06:55.980Z,48.50
2023-03-03T03:12:02.388Z,49.85
2023-03-03T03:17:05.817Z,62.70
2023-03-03T03:22:07.325Z,72.70
2023-03-03T03:27:10.583Z,57.55
2023-03-03T03:32:12.818Z,49.38
2023-03-03T03:37:14.459Z,54.30
2023-03-03T03:42:19.805Z,51.28
2023-03-03T03:47:22.429Z,51.70
2023-03-03T03:52:23.946Z,50.92
2023-03-03T03:57:26.800Z,50.53
2023-03-03T04:02:28.969Z,55.17
2023-03-03T04:07:30.619Z,57.33
2023-03-03T04:12:38.292Z,49.40
2023-03-03T04:17:42.870Z,43.83
2023-03-03T04:22:44.632Z,23.70
2023-03-03T04:27:46.575Z,45.83
2023-03-03T04:32:50.286Z,48.08
2023-03-03T04:37:56.116Z,45.17
2023-03-03T04:42:58.752Z,37.10
2023-03-03T04:48:00.461Z,33.20
2023-03-03T04:53:02.776Z,35.85
2023-03-03T04:58:05.460Z,36.15
2023-03-03T05:03:10.829Z,47.22
2023-03-03T05:08:14.523Z,40.10
2023-03-03T05:13:17.103Z,29.67
2023-03-03T05:18:19.729Z,40.53
2023-03-03T05:23:21.749Z,32.22
2023-03-03T05:28:23.376Z,40.28
2023-03-03T05:33:25.237Z,38.58
2023-03-03T05:38:26.846Z,36.80
2023-03-03T05:43:29.200Z,36.15
2023-03-03T05:48:30.674Z,41.25
2023-03-03T05:53:32.242Z,47.85
2023-03-03T05:58:33.769Z,50.83
2023-03-03T06:03:35.341Z,43.92
2023-03-03T06:08:36.765Z,45.33
2023-03-03T06:13:38.541Z,45.47
2023-03-03T06:18:39.993Z,42.63
2023-03-03T06:23:41.627Z,44.65
2023-03-03T06:28:43.028Z,49.15
2023-03-03T06:33:44.449Z,43.95
2023-03-03T06:38:46.333Z,43.22
2023-03-03T06:43:47.752Z,40.63
2023-03-03T06:48:49.236Z,37.50
2023-03-03T06:53:54.854Z,41.33
2023-03-03T06:58:58.891Z,38.58
2023-03-03T07:04:00.610Z,35.80
2023-03-03T07:09:02.096Z,31.85
2023-03-03T07:14:03.521Z,38.67
2023-03-03T07:19:19.165Z,41.88
2023-03-03T07:24:29.363Z,39.70
2023-03-03T07:29:30.952Z,51.17
2023-03-03T07:34:43.986Z,42.42
2023-03-03T07:39:47.451Z,25.48
2023-03-03T07:44:52.117Z,25.95
2023-03-03T07:49:55.827Z,28.35
2023-03-03T07:55:00.466Z,31.58
2023-03-03T08:00:14.681Z,26.10
2023-03-03T08:05:28.327Z,30.10
2023-03-03T08:10:36.483Z,30.15
2023-03-03T08:15:38.365Z,32.55
2023-03-03T08:20:48.673Z,25.40
2023-03-03T08:25:51.389Z,27.48
2023-03-03T08:31:02.633Z,23.48
2023-03-03T08:36:11.371Z,24.92
2023-03-03T08:41:13.628Z,32.67
2023-03-03T08:46:15.189Z,24.50
2023-03-03T08:51:16.621Z,28.00
2023-03-03T08:56:18.046Z,27.35
2023-03-03T09:01:19.577Z,23.85
2023-03-03T09:06:21.009Z,24.17
2023-03-03T09:11:27.447Z,22.75
2023-03-03T09:16:33.260Z,20.00
2023-03-03T09:21:34.712Z,21.55
2023-03-03T09:26:48.873Z,20.23
2023-03-03T09:32:27.240Z,16.73
2023-03-03T09:37:40.355Z,23.55
2023-03-03T09:43:04.214Z,16.42
2023-03-03T09:48:27.550Z,11.65
2023-03-03T09:53:46.622Z,12.48
2023-03-03T09:59:09.941Z,10.02
2023-03-03T10:04:41.698Z,9.25
2023-03-03T10:10:05.727Z,8.82
2023-03-03T10:15:18.194Z,10.90
2023-03-03T10:20:50.765Z,7.88
2023-03-03T10:26:11.267Z,8.75
2023-03-03T10:31:49.247Z,10.90
2023-03-03T10:36:53.808Z,10.82
2023-03-03T10:42:04.350Z,10.50
2023-03-03T10:47:27.217Z,10.30
2023-03-03T10:53:07.569Z,13.18
2023-03-03T10:58:43.325Z,9.82
2023-03-03T11:04:03.961Z,11.65
2023-03-03T11:09:37.260Z,11.07
2023-03-03T11:14:55.625Z,9.43
2023-03-03T11:20:20.342Z,9.65
2023-03-03T11:25:21.919Z,9.88
2023-03-03T11:30:35.428Z,10.07
2023-03-03T11:35:45.352Z,9.48
2023-03-03T11:41:04.770Z,10.32
2023-03-03T11:46:13.026Z,9.38
2023-03-03T11:51:23.553Z,9.55
2023-03-03T11:56:41.832Z,10.30
2023-03-03T12:02:11.085Z,11.27
2023-03-03T12:07:34.657Z,10.18
2023-03-03T12:12:45.086Z,12.13
2023-03-03T12:23:24.368Z,13.40
2023-03-03T12:28:34.250Z,12.10
2023-03-03T12:33:53.076Z,11.90
2023-03-03T12:39:32.449Z,12.50
2023-03-03T12:44:44.892Z,9.50
2023-03-03T12:50:07.506Z,8.73
2023-03-03T12:55:34.972Z,12.35
2023-03-03T13:00:53.207Z,10.90
2023-03-03T13:06:00.617Z,13.60
2023-03-03T13:11:22.212Z,12.15
2023-03-03T13:16:41.453Z,10.75
2023-03-03T13:21:54.749Z,12.80
2023-03-03T13:27:07.284Z,10.30
2023-03-03T13:32:14.714Z,10.00
2023-03-03T13:37:23.346Z,13.95
2023-03-03T13:42:46.832Z,12.82
2023-03-03T13:48:09.597Z,7.57
2023-03-03T13:53:50.102Z,12.20
2023-03-03T13:59:10.059Z,12.82
2023-03-03T14:04:48.417Z,13.07
2023-03-03T14:10:08.990Z,10.02
2023-03-03T14:15:48.418Z,11.18
2023-03-03T14:20:52.671Z,12.15
2023-03-03T14:26:20.910Z,10.90
2023-03-03T14:31:48.549Z,11.80
2023-03-03T14:36:54.048Z,13.35
2023-03-03T14:41:57.546Z,12.38
2023-03-03T14:47:18.886Z,9.93
2023-03-03T14:52:26.514Z,8.48
2023-03-03T14:57:46.960Z,15.82
2023-03-03T15:03:04.710Z,16.05
2023-03-03T15:08:06.222Z,21.58
2023-03-03T15:13:10.598Z,19.35
2023-03-03T15:18:13.767Z,12.75
2023-03-03T15:23:44.463Z,14.32
2023-03-03T15:28:53.378Z,17.10
2023-03-03T15:34:23.124Z,11.65
2023-03-03T15:39:31.047Z,15.55
2023-03-03T15:44:35.328Z,12.13
2023-03-03T15:50:06.649Z,16.63
2023-03-03T15:55:17.637Z,15.73
2023-03-03T16:00:38.702Z,18.38
2023-03-03T16:06:01.076Z,19.98
2023-03-03T16:11:15.916Z,18.90
2023-03-03T16:21:25.411Z,17.17
2023-03-03T16:26:36.626Z,10.88
2023-03-03T16:31:45.595Z,13.93
2023-03-03T16:37:08.412Z,17.50
2023-03-03T16:42:30.848Z,17.17
2023-03-03T16:47:49.725Z,21.23
2023-03-03T16:53:10.541Z,20.33
2023-03-03T16:58:41.917Z,21.92
2023-03-03T17:03:55.321Z,22.17
2023-03-03T17:09:07.855Z,22.35
2023-03-03T17:14:28.733Z,20.40
2023-03-03T17:19:46.227Z,12.45
2023-03-03T17:25:08.384Z,18.90
2023-03-03T17:30:22.251Z,19.40
2023-03-03T17:35:45.108Z,24.27
2023-03-03T17:41:01.662Z,11.65
2023-03-03T17:46:09.712Z,20.60
2023-03-03T17:51:55.613Z,20.23
2023-03-03T17:57:35.493Z,21.80
2023-03-03T18:03:01.833Z,21.98
2023-03-03T18:08:20.813Z,22.95
2023-03-03T18:13:38.650Z,22.25
2023-03-03T18:19:02.624Z,31.38
2023-03-03T18:24:27.934Z,25.98
2023-03-03T18:29:29.564Z,32.25
2023-03-03T18:34:39.690Z,26.08
2023-03-03T18:40:10.237Z,31.13
2023-03-03T18:45:31.565Z,34.40
2023-03-03T18:50:35.131Z,36.20
2023-03-03T18:55:48.345Z,35.25
2023-03-03T19:01:19.115Z,35.38
2023-03-03T19:06:35.790Z,39.72
2023-03-03T19:11:49.370Z,41.10
2023-03-03T19:16:52.328Z,39.15
2023-03-03T19:22:22.196Z,42.72
2023-03-03T19:27:30.657Z,37.33
2023-03-03T19:33:06.388Z,30.77
2023-03-03T19:38:28.725Z,33.70
2023-03-03T19:43:48.210Z,47.63
2023-03-03T19:49:27.219Z,36.08
2023-03-03T19:54:44.868Z,45.42
2023-03-03T20:00:18.198Z,44.22
2023-03-03T20:05:30.634Z,41.88
2023-03-03T20:10:45.726Z,38.28
2023-03-03T20:15:58.977Z,42.30
2023-03-03T20:21:19.779Z,41.88
2023-03-03T20:26:52.100Z,47.03
2023-03-03T20:32:13.491Z,36.25
2023-03-03T20:37:25.353Z,53.70
2023-03-03T20:43:00.605Z,28.48
2023-03-03T20:48:45.920Z,30.98
2023-03-03T20:54:29.043Z,45.28
2023-03-03T20:59:53.027Z,41.88
2023-03-03T21:05:12.181Z,48.70
2023-03-03T21:10:23.993Z,59.83
2023-03-03T21:15:25.367Z,56.13
2023-03-03T21:20:35.024Z,54.88
2023-03-03T21:25:44.322Z,44.05
2023-03-03T21:31:21.313Z,55.00
2023-03-03T21:36:44.086Z,47.30
2023-03-03T21:41:59.215Z,45.38
2023-03-03T21:47:01.332Z,58.05
2023-03-03T21:52:02.950Z,38.58
2023-03-03T21:57:04.773Z,49.58
2023-03-03T22:02:07.474Z,43.58
2023-03-03T22:07:09.371Z,50.70
2023-03-03T22:12:10.794Z,50.20
2023-03-03T22:17:12.228Z,36.50
2023-03-03T22:22:13.635Z,42.38
2023-03-03T22:27:15.172Z,39.20
2023-03-03T22:32:16.617Z,46.70
2023-03-03T22:37:20.640Z,42.25
2023-03-03T22:42:23.388Z,39.30
2023-03-03T22:47:24.854Z,35.10
2023-03-03T22:52:26.263Z,38.00
2023-03-03T22:57:27.716Z,38.20
2023-03-03T23:02:29.820Z,38.35
2023-03-03T23:07:31.235Z,37.10
2023-03-03T23:12:32.820Z,33.90
2023-03-03T23:17:34.332Z,31.17
2023-03-03T23:22:35.885Z,39.10
2023-03-03T23:27:37.606Z,36.47
2023-03-03T23:32:39.081Z,39.35
2023-03-03T23:37:40.633Z,30.75
2023-03-03T23:42:42.832Z,34.97
2023-03-03T23:47:44.403Z,37.30
2023-03-03T23:52:45.827Z,35.42
2023-03-03T23:57:47.256Z,30.45
